Time;durP1;ratioP1;P1;durP2;ratioP2;P2;SDS_P1;SDS_P2;PMS_P1;PMS_P2;Temp;Humidity;BMP_temperature;BMP_pressure;BME280_temperature;BME280_humidity;BME280_pressure;Samples;Min_cycle;Max_cycle;Signal;HPM_P1;HPM_P2
2022/03/14 00:00:17;;;;;;;;;;;;;;;;;;4221822;28;998;-58
2022/03/14 00:02:42;;;;;;;;;;;;;;;;;;4221661;28;886;-58
2022/03/14 00:05:04;;;;;;;;;;;;;;;;;;4221707;28;982;-58
2022/03/14 00:07:26;;;;;;;;;;;;;;;;;;4221801;28;1902;-58
2022/03/14 00:09:46;;;;;;;;;;;;;;;;;;4221800;28;919;-58
2022/03/14 00:12:08;;;;;;;;;;;;;;;;;;4221588;28;877;-58
2022/03/14 00:14:29;;;;;;;;;;;;;;;;;;4221564;28;885;-59
2022/03/14 00:16:50;;;;;;;;;;;;;;;;;;4221548;28;875;-58
2022/03/14 00:19:10;;;;;;;;;;;;;;;;;;4221694;28;1008;-58
2022/03/14 00:21:35;;;;;;;;;;;;;;;;;;4221583;28;1055;-58
2022/03/14 00:23:56;;;;;;;;;;;;;;;;;;4206177;28;1070;-58
2022/03/14 00:26:16;;;;;;;;;;;;;;;;;;4220040;28;1890;-58
2022/03/14 00:28:37;;;;;;;;;;;;;;;;;;4221442;28;831;-58
2022/03/14 00:30:58;;;;;;;;;;;;;;;;;;4220137;28;868;-58
2022/03/14 00:33:18;;;;;;;;;;;;;;;;;;4221064;28;1196;-58
2022/03/14 00:35:39;;;;;;;;;;;;;;;;;;4221149;28;1031;-58
2022/03/14 00:38:00;;;;;;;;;;;;;;;;;;4220738;28;896;-58
2022/03/14 00:40:21;;;;;;;;;;;;;;;;;;4220331;28;1152;-58
2022/03/14 00:42:43;;;;;;;;;;;;;;;;;;4220828;28;833;-58
2022/03/14 00:45:04;;;;;;;;;;;;;;;;;;4220441;28;1589;-58
2022/03/14 00:47:25;;;;;;;;;;;;;;;;;;4220640;28;1991;-58
2022/03/14 00:49:46;;;;;;;;;;;;;;;;;;4220800;28;813;-59
2022/03/14 00:52:06;;;;;;;;;;;;;;;;;;4220611;28;1016;-58
2022/03/14 00:54:27;;;;;;;;;;;;;;;;;;4220608;28;837;-58
2022/03/14 00:56:47;;;;;;;;;;;;;;;;;;4220717;28;822;-58
2022/03/14 00:59:08;;;;;;;;;;;;;;;;;;4220296;28;1113;-58
2022/03/14 01:01:29;;;;;;;;;;;;;;;;;;4202091;28;1018;-58
2022/03/14 01:03:50;;;;;;;;;;;;;;;;;;4205527;28;822;-58
2022/03/14 01:06:10;;;;;;;;;;;;;;;;;;4205478;28;950;-58
2022/03/14 01:08:31;;;;;;;;;;;;;;;;;;4220754;28;1020;-58
2022/03/14 01:10:51;;;;;;;;;;;;;;;;;;4219724;28;922;-58
2022/03/14 01:13:12;;;;;;;;;;;;;;;;;;4205422;28;846;-58
2022/03/14 01:15:32;;;;;;;;;;;;;;;;;;4220705;28;1000;-58
2022/03/14 01:17:53;;;;;;;;;;;;;;;;;;4220433;28;1052;-58
2022/03/14 01:20:14;;;;;;;;;;;;;;;;;;4205384;28;934;-59
2022/03/14 01:22:35;;;;;;;;;;;;;;;;;;4220655;28;822;-58
2022/03/14 01:24:56;;;;;;;;;;;;;;;;;;4220480;28;918;-58
2022/03/14 01:27:17;;;;;;;;;;;;;;;;;;4205158;28;1996;-58
2022/03/14 01:29:38;;;;;;;;;;;;;;;;;;4205986;28;837;-58
2022/03/14 01:31:58;;;;;;;;;;;;;;;;;;4220483;28;925;-58
2022/03/14 01:34:19;;;;;;;;;;;;;;;;;;4219748;28;843;-58
2022/03/14 01:36:40;;;;;;;;;;;;;;;;;;4220481;28;960;-59
2022/03/14 01:39:00;;;;;;;;;;;;;;;;;;4219628;28;805;-57
2022/03/14 01:41:22;;;;;;;;;;;;;;;;;;4220722;28;956;-58
2022/03/14 01:43:43;;;;;;;;;;;;;;;;;;4220152;28;1076;-58
2022/03/14 01:46:04;;;;;;;;;;;;;;;;;;4220395;28;952;-58
2022/03/14 01:48:27;;;;;;;;;;;;;;;;;;4205183;28;1988;-58
2022/03/14 01:50:48;;;;;;;;;;;;;;;;;;4219980;28;975;-59
2022/03/14 01:53:11;;;;;;;;;;;;;;;;;;4220290;28;958;-58
2022/03/14 01:55:32;;;;;;;;;;;;;;;;;;4220291;28;823;-58
2022/03/14 01:57:53;;;;;;;;;;;;;;;;;;4204204;28;984;-58
2022/03/14 02:04:02;;;;;;;;;;;;;;;;;;4203175;28;724;-58
2022/03/14 02:06:23;;;;;;;;;;;;;;;;;;4202751;28;1018;-58
2022/03/14 02:08:43;;;;;;;;;;;;;;;;;;4201236;28;1921;-59
2022/03/14 02:11:04;;;;;;;;;;;;;;;;;;4202858;28;891;-58
2022/03/14 02:13:25;;;;;;;;;;;;;;;;;;4213710;28;1128;-58
2022/03/14 02:15:46;;;;;;;;;;;;;;;;;;4204279;28;1165;-58
2022/03/14 02:18:07;;;;;;;;;;;;;;;;;;4218539;28;1200;-58
2022/03/14 02:20:27;;;;;;;;;;;;;;;;;;4204101;28;1031;-59
2022/03/14 02:22:48;;;;;;;;;;;;;;;;;;4219555;28;1009;-58
2022/03/14 02:25:09;;;;;;;;;;;;;;;;;;4219403;28;1022;-58
2022/03/14 02:27:30;;;;;;;;;;;;;;;;;;4219411;28;2004;-58
2022/03/14 02:29:51;;;;;;;;;;;;;;;;;;4203960;28;1192;-58
2022/03/14 02:32:12;;;;;;;;;;;;;;;;;;4203739;28;988;-58
2022/03/14 02:34:32;;;;;;;;;;;;;;;;;;4218968;28;898;-58
2022/03/14 02:36:53;;;;;;;;;;;;;;;;;;4218486;28;1023;-58
2022/03/14 02:39:14;;;;;;;;;;;;;;;;;;4219356;28;1013;-58
2022/03/14 02:41:35;;;;;;;;;;;;;;;;;;4219389;28;930;-58
2022/03/14 02:43:55;;;;;;;;;;;;;;;;;;4219178;28;1296;-58
2022/03/14 02:46:16;;;;;;;;;;;;;;;;;;4203757;28;1033;-58
2022/03/14 02:48:40;;;;;;;;;;;;;;;;;;4219111;28;1988;-58
2022/03/14 02:51:00;;;;;;;;;;;;;;;;;;4219437;28;961;-58
2022/03/14 02:53:21;;;;;;;;;;;;;;;;;;4218651;28;966;-58
2022/03/14 02:55:42;;;;;;;;;;;;;;;;;;4219606;28;869;-59
2022/03/14 02:58:02;;;;;;;;;;;;;;;;;;4219200;28;825;-59
2022/03/14 03:00:23;;;;;;;;;;;;;;;;;;4219629;28;816;-58
2022/03/14 03:02:44;;;;;;;;;;;;;;;;;;4220974;28;956;-58
2022/03/14 03:05:05;;;;;;;;;;;;;;;;;;4222012;28;1634;-58
2022/03/14 03:07:26;;;;;;;;;;;;;;;;;;4222362;28;1906;-58
2022/03/14 03:09:47;;;;;;;;;;;;;;;;;;4222178;28;1384;-58
2022/03/14 03:12:11;;;;;;;;;;;;;;;;;;4222123;28;814;-58
2022/03/14 03:14:32;;;;;;;;;;;;;;;;;;4221848;28;1200;-58
2022/03/14 03:16:52;;;;;;;;;;;;;;;;;;4222205;28;1003;-59
2022/03/14 03:19:15;;;;;;;;;;;;;;;;;;4222048;28;864;-58
2022/03/14 03:21:39;;;;;;;;;;;;;;;;;;4221667;28;834;-58
2022/03/14 03:24:00;;;;;;;;;;;;;;;;;;4222107;28;825;-58
2022/03/14 03:26:21;;;;;;;;;;;;;;;;;;4221919;28;905;-58
2022/03/14 03:28:42;;;;;;;;;;;;;;;;;;4221556;28;1983;-58
2022/03/14 03:31:03;;;;;;;;;;;;;;;;;;4206529;28;1086;-58
2022/03/14 03:33:23;;;;;;;;;;;;;;;;;;4221973;28;981;-58
2022/03/14 03:35:44;;;;;;;;;;;;;;;;;;4221508;28;863;-58
2022/03/14 03:38:05;;;;;;;;;;;;;;;;;;4221871;28;1196;-58
2022/03/14 03:40:26;;;;;;;;;;;;;;;;;;4221797;28;851;-59
2022/03/14 03:42:48;;;;;;;;;;;;;;;;;;4221664;28;999;-58
2022/03/14 03:45:09;;;;;;;;;;;;;;;;;;4220493;28;1306;-58
2022/03/14 03:47:30;;;;;;;;;;;;;;;;;;4221624;28;1977;-60
2022/03/14 03:49:50;;;;;;;;;;;;;;;;;;4221754;28;1258;-58
2022/03/14 03:52:11;;;;;;;;;;;;;;;;;;4220689;28;1053;-59
2022/03/14 03:54:32;;;;;;;;;;;;;;;;;;4221337;28;815;-58
2022/03/14 03:56:53;;;;;;;;;;;;;;;;;;4221612;28;966;-59
2022/03/14 03:59:13;;;;;;;;;;;;;;;;;;4221056;28;880;-59
2022/03/14 04:01:35;;;;;;;;;;;;;;;;;;4221075;28;1176;-58
2022/03/14 04:03:55;;;;;;;;;;;;;;;;;;4205961;28;942;-58
2022/03/14 04:06:20;;;;;;;;;;;;;;;;;;4221315;28;942;-58
2022/03/14 04:08:41;;;;;;;;;;;;;;;;;;4221594;28;2016;-59
2022/03/14 04:11:04;;;;;;;;;;;;;;;;;;4206110;28;1163;-59
2022/03/14 04:13:26;;;;;;;;;;;;;;;;;;4221093;28;1047;-58
2022/03/14 04:15:51;;;;;;;;;;;;;;;;;;4221671;28;832;-58
2022/03/14 04:18:11;;;;;;;;;;;;;;;;;;4206171;28;872;-58
2022/03/14 04:20:32;;;;;;;;;;;;;;;;;;4221589;28;1097;-58
2022/03/14 04:22:53;;;;;;;;;;;;;;;;;;4206348;28;1019;-58
2022/03/14 04:25:14;;;;;;;;;;;;;;;;;;4221332;28;1073;-59
2022/03/14 04:27:35;;;;;;;;;;;;;;;;;;4221566;28;1219;-58
2022/03/14 04:29:55;;;;;;;;;;;;;;;;;;4221458;28;1048;-59
2022/03/14 04:32:20;;;;;;;;;;;;;;;;;;4221508;28;956;-58
2022/03/14 04:34:42;;;;;;;;;;;;;;;;;;4221069;28;1072;-58
2022/03/14 04:37:03;;;;;;;;;;;;;;;;;;4220956;28;962;-58
2022/03/14 04:39:23;;;;;;;;;;;;;;;;;;4220548;28;997;-58
2022/03/14 04:41:44;;;;;;;;;;;;;;;;;;4221516;28;979;-58
2022/03/14 04:44:05;;;;;;;;;;;;;;;;;;4205442;28;1254;-58
2022/03/14 04:46:26;;;;;;;;;;;;;;;;;;4221335;28;826;-58
2022/03/14 04:48:47;;;;;;;;;;;;;;;;;;4220798;28;1992;-59
2022/03/14 04:51:07;;;;;;;;;;;;;;;;;;4206096;28;842;-59
2022/03/14 04:53:28;;;;;;;;;;;;;;;;;;4221199;28;957;-59
2022/03/14 04:55:49;;;;;;;;;;;;;;;;;;4221161;28;1023;-59
2022/03/14 04:58:12;;;;;;;;;;;;;;;;;;4221035;28;784;-59
2022/03/14 05:00:32;;;;;;;;;;;;;;;;;;4221178;28;1056;-59
2022/03/14 05:02:53;;;;;;;;;;;;;;;;;;4221101;28;876;-59
2022/03/14 05:05:13;;;;;;;;;;;;;;;;;;4221184;28;961;-59
2022/03/14 05:07:35;;;;;;;;;;;;;;;;;;4220892;28;1004;-59
2022/03/14 05:09:56;;;;;;;;;;;;;;;;;;4220828;28;1906;-59
2022/03/14 05:12:17;;;;;;;;;;;;;;;;;;4220750;28;1013;-59
2022/03/14 05:14:39;;;;;;;;;;;;;;;;;;4220904;28;937;-59
2022/03/14 05:17:00;;;;;;;;;;;;;;;;;;4220307;28;1144;-58
2022/03/14 05:19:21;;;;;;;;;;;;;;;;;;4220753;28;933;-59
2022/03/14 05:21:42;;;;;;;;;;;;;;;;;;4220732;28;931;-58
2022/03/14 05:24:03;;;;;;;;;;;;;;;;;;4219323;28;886;-60
2022/03/14 05:26:23;;;;;;;;;;;;;;;;;;4220135;28;872;-59
2022/03/14 05:28:44;;;;;;;;;;;;;;;;;;4220329;28;1995;-59
2022/03/14 05:31:05;;;;;;;;;;;;;;;;;;4220521;28;808;-59
2022/03/14 05:33:26;;;;;;;;;;;;;;;;;;4220448;28;835;-59
2022/03/14 05:35:47;;;;;;;;;;;;;;;;;;4220432;28;958;-59
2022/03/14 05:38:08;;;;;;;;;;;;;;;;;;4220515;28;871;-59
2022/03/14 05:40:30;;;;;;;;;;;;;;;;;;4205080;28;885;-59
2022/03/14 05:42:51;;;;;;;;;;;;;;;;;;4220303;28;864;-60
2022/03/14 05:45:12;;;;;;;;;;;;;;;;;;4220407;28;1344;-59
2022/03/14 05:47:33;;;;;;;;;;;;;;;;;;4220457;28;1332;-59
2022/03/14 05:49:53;;;;;;;;;;;;;;;;;;4220110;28;1914;-60
2022/03/14 05:52:14;;;;;;;;;;;;;;;;;;4220348;28;842;-59
2022/03/14 05:54:35;;;;;;;;;;;;;;;;;;4220427;28;849;-60
2022/03/14 05:56:57;;;;;;;;;;;;;;;;;;4219778;28;970;-59
2022/03/14 05:59:18;;;;;;;;;;;;;;;;;;4220378;28;906;-60
2022/03/14 06:01:39;;;;;;;;;;;;;;;;;;4220399;28;1162;-59
2022/03/14 06:03:59;;;;;;;;;;;;;;;;;;4219262;28;868;-60
2022/03/14 06:06:20;;;;;;;;;;;;;;;;;;4219809;28;982;-60
2022/03/14 06:08:41;;;;;;;;;;;;;;;;;;4218980;28;1922;-60
2022/03/14 06:11:08;;;;;;;;;;;;;;;;;;4220091;28;825;-60
2022/03/14 06:13:28;;;;;;;;;;;;;;;;;;4220246;28;927;-60
2022/03/14 06:15:49;;;;;;;;;;;;;;;;;;4220074;28;993;-60
2022/03/14 06:18:09;;;;;;;;;;;;;;;;;;4220236;28;891;-61
2022/03/14 06:20:30;;;;;;;;;;;;;;;;;;4219780;28;985;-61
2022/03/14 06:22:51;;;;;;;;;;;;;;;;;;4219864;28;824;-60
2022/03/14 06:25:12;;;;;;;;;;;;;;;;;;4219570;28;866;-62
2022/03/14 06:27:33;;;;;;;;;;;;;;;;;;4219843;28;986;-61
2022/03/14 06:29:54;;;;;;;;;;;;;;;;;;4219642;28;1978;-61
2022/03/14 06:32:15;;;;;;;;;;;;;;;;;;4219779;28;878;-61
2022/03/14 06:34:36;;;;;;;;;;;;;;;;;;4219654;28;1156;-60
2022/03/14 06:36:56;;;;;;;;;;;;;;;;;;4222669;28;854;-61
2022/03/14 06:39:17;;;;;;;;;;;;;;;;;;4222930;28;971;-60
2022/03/14 06:41:39;;;;;;;;;;;;;;;;;;4222723;28;786;-60
2022/03/14 06:43:59;;;;;;;;;;;;;;;;;;4222772;28;1302;-62
2022/03/14 06:46:20;;;;;;;;;;;;;;;;;;4222214;28;1190;-60
2022/03/14 06:48:43;;;;;;;;;;;;;;;;;;4222671;28;1921;-60
2022/03/14 06:51:03;;;;;;;;;;;;;;;;;;4222732;28;1046;-62
2022/03/14 06:53:24;;;;;;;;;;;;;;;;;;4222775;28;853;-60
2022/03/14 06:55:45;;;;;;;;;;;;;;;;;;4222629;28;979;-60
2022/03/14 06:58:05;;;;;;;;;;;;;;;;;;4222561;28;918;-60
2022/03/14 07:00:27;;;;;;;;;;;;;;;;;;4222264;28;946;-60
2022/03/14 07:02:49;;;;;;;;;;;;;;;;;;4222531;28;1237;-61
2022/03/14 07:05:10;;;;;;;;;;;;;;;;;;4207012;28;786;-60
2022/03/14 07:07:30;;;;;;;;;;;;;;;;;;4222583;28;852;-61
2022/03/14 07:09:51;;;;;;;;;;;;;;;;;;4222586;28;1911;-60
2022/03/14 07:12:12;;;;;;;;;;;;;;;;;;4222457;28;916;-60
2022/03/14 07:14:33;;;;;;;;;;;;;;;;;;4207254;28;1005;-61
2022/03/14 07:16:53;;;;;;;;;;;;;;;;;;4222466;28;886;-60
2022/03/14 07:19:14;;;;;;;;;;;;;;;;;;4222251;28;1001;-60
2022/03/14 07:21:35;;;;;;;;;;;;;;;;;;4222532;28;827;-60
2022/03/14 07:23:55;;;;;;;;;;;;;;;;;;4222341;28;1027;-60
2022/03/14 07:26:16;;;;;;;;;;;;;;;;;;4222147;28;853;-60
2022/03/14 07:28:37;;;;;;;;;;;;;;;;;;4222204;28;825;-61
2022/03/14 07:31:00;;;;;;;;;;;;;;;;;;4222330;28;837;-61
2022/03/14 07:33:21;;;;;;;;;;;;;;;;;;4222124;28;909;-60
2022/03/14 07:35:42;;;;;;;;;;;;;;;;;;4206817;28;1311;-61
2022/03/14 07:38:03;;;;;;;;;;;;;;;;;;4222195;28;1035;-60
2022/03/14 07:40:23;;;;;;;;;;;;;;;;;;4222126;28;1112;-60
2022/03/14 07:42:45;;;;;;;;;;;;;;;;;;4222083;28;831;-60
2022/03/14 07:45:05;;;;;;;;;;;;;;;;;;4221956;28;1268;-60
2022/03/14 07:47:26;;;;;;;;;;;;;;;;;;4220964;28;1002;-60
2022/03/14 07:49:47;;;;;;;;;;;;;;;;;;4206236;28;1975;-60
2022/03/14 07:52:07;;;;;;;;;;;;;;;;;;4221867;28;1001;-61
2022/03/14 07:54:28;;;;;;;;;;;;;;;;;;4221666;28;1033;-61
2022/03/14 07:56:49;;;;;;;;;;;;;;;;;;4221777;28;1028;-60
2022/03/14 07:59:09;;;;;;;;;;;;;;;;;;4221860;28;1221;-61
2022/03/14 08:01:32;;;;;;;;;;;;;;;;;;4221711;28;877;-61
2022/03/14 08:03:52;;;;;;;;;;;;;;;;;;4221414;28;947;-60
2022/03/14 08:06:22;;;;;;;;;;;;;;;;;;4221908;28;1046;-60
2022/03/14 08:08:43;;;;;;;;;;;;;;;;;;4221187;28;1072;-60
2022/03/14 08:11:04;;;;;;;;;;;;;;;;;;4221706;28;2016;-60
2022/03/14 08:13:24;;;;;;;;;;;;;;;;;;4221945;28;981;-60
2022/03/14 08:15:45;;;;;;;;;;;;;;;;;;4221427;28;929;-60
2022/03/14 08:18:07;;;;;;;;;;;;;;;;;;4221692;28;936;-61
2022/03/14 08:20:27;;;;;;;;;;;;;;;;;;4221313;28;994;-60
2022/03/14 08:22:48;;;;;;;;;;;;;;;;;;4221396;28;968;-60
2022/03/14 08:25:09;;;;;;;;;;;;;;;;;;4221423;28;814;-61
2022/03/14 08:27:30;;;;;;;;;;;;;;;;;;4221148;28;839;-61
2022/03/14 08:29:51;;;;;;;;;;;;;;;;;;4221186;28;1984;-61
2022/03/14 08:32:12;;;;;;;;;;;;;;;;;;4221096;28;1036;-60
2022/03/14 08:34:33;;;;;;;;;;;;;;;;;;4220651;28;1104;-60
2022/03/14 08:36:54;;;;;;;;;;;;;;;;;;4221016;28;933;-61
2022/03/14 08:39:15;;;;;;;;;;;;;;;;;;4205803;28;1010;-60
2022/03/14 08:41:36;;;;;;;;;;;;;;;;;;4221017;28;818;-60
2022/03/14 08:43:57;;;;;;;;;;;;;;;;;;4219756;28;1234;-61
2022/03/14 08:46:18;;;;;;;;;;;;;;;;;;4221224;28;1059;-60
2022/03/14 08:48:39;;;;;;;;;;;;;;;;;;4219874;28;1004;-62
2022/03/14 08:50:59;;;;;;;;;;;;;;;;;;4219069;28;1906;-60
2022/03/14 08:53:20;;;;;;;;;;;;;;;;;;4219913;28;964;-60
2022/03/14 08:55:41;;;;;;;;;;;;;;;;;;4219509;28;1025;-60
2022/03/14 08:58:02;;;;;;;;;;;;;;;;;;4219400;28;764;-61
2022/03/14 09:00:24;;;;;;;;;;;;;;;;;;4219373;28;1325;-61
2022/03/14 09:02:44;;;;;;;;;;;;;;;;;;4219492;28;836;-61
2022/03/14 09:05:05;;;;;;;;;;;;;;;;;;4219631;28;881;-60
2022/03/14 09:07:26;;;;;;;;;;;;;;;;;;4220695;28;957;-60
2022/03/14 09:09:47;;;;;;;;;;;;;;;;;;4220241;28;1988;-61
2022/03/14 09:12:07;;;;;;;;;;;;;;;;;;4220866;28;865;-61
2022/03/14 09:14:30;;;;;;;;;;;;;;;;;;4220375;28;1028;-61
2022/03/14 09:16:51;;;;;;;;;;;;;;;;;;4219924;28;1123;-61
2022/03/14 09:19:12;;;;;;;;;;;;;;;;;;4220477;28;919;-60
2022/03/14 09:21:34;;;;;;;;;;;;;;;;;;4219935;28;825;-60
2022/03/14 09:23:54;;;;;;;;;;;;;;;;;;4220592;28;967;-61
2022/03/14 09:26:15;;;;;;;;;;;;;;;;;;4220646;28;775;-60
2022/03/14 09:28:39;;;;;;;;;;;;;;;;;;4220279;28;982;-61
2022/03/14 09:31:00;;;;;;;;;;;;;;;;;;4204758;28;1931;-61
2022/03/14 09:33:23;;;;;;;;;;;;;;;;;;4220753;28;881;-61
2022/03/14 09:35:44;;;;;;;;;;;;;;;;;;4219405;28;1064;-60
2022/03/14 09:38:05;;;;;;;;;;;;;;;;;;4220589;28;1112;-61
2022/03/14 09:40:26;;;;;;;;;;;;;;;;;;4221101;28;827;-61
2022/03/14 09:42:47;;;;;;;;;;;;;;;;;;4220395;28;877;-61
2022/03/14 09:45:08;;;;;;;;;;;;;;;;;;4219330;28;1019;-61
2022/03/14 09:47:29;;;;;;;;;;;;;;;;;;4203356;28;1110;-60
2022/03/14 09:49:50;;;;;;;;;;;;;;;;;;4203281;28;1910;-61
2022/03/14 09:52:10;;;;;;;;;;;;;;;;;;4202512;28;867;-60
2022/03/14 09:54:31;;;;;;;;;;;;;;;;;;4202184;28;822;-60
2022/03/14 09:56:52;;;;;;;;;;;;;;;;;;4202093;28;1016;-61
2022/03/14 09:59:13;;;;;;;;;;;;;;;;;;4202873;28;924;-60
2022/03/14 10:01:33;;;;;;;;;;;;;;;;;;4203548;28;1048;-61
2022/03/14 10:03:54;;;;;;;;;;;;;;;;;;4203379;28;1120;-60
2022/03/14 10:06:14;;;;;;;;;;;;;;;;;;4203347;28;820;-60
2022/03/14 10:08:35;;;;;;;;;;;;;;;;;;4203557;28;1114;-60
2022/03/14 10:10:56;;;;;;;;;;;;;;;;;;4204676;28;2026;-61
2022/03/14 10:13:16;;;;;;;;;;;;;;;;;;4206222;28;869;-60
2022/03/14 10:15:37;;;;;;;;;;;;;;;;;;4218494;28;916;-61
2022/03/14 10:17:58;;;;;;;;;;;;;;;;;;4205606;28;881;-60
2022/03/14 10:20:19;;;;;;;;;;;;;;;;;;4204867;28;813;-61
2022/03/14 10:22:39;;;;;;;;;;;;;;;;;;4204696;28;913;-61
2022/03/14 10:25:01;;;;;;;;;;;;;;;;;;4210555;28;1237;-60
2022/03/14 10:27:22;;;;;;;;;;;;;;;;;;4221604;28;815;-61
2022/03/14 10:29:43;;;;;;;;;;;;;;;;;;4221371;28;833;-61
2022/03/14 10:32:06;;;;;;;;;;;;;;;;;;4222268;28;2655;-60
2022/03/14 10:34:26;;;;;;;;;;;;;;;;;;4221573;28;2758;-60
2022/03/14 10:36:47;;;;;;;;;;;;;;;;;;4220809;28;910;-60
2022/03/14 10:39:08;;;;;;;;;;;;;;;;;;4221763;28;2801;-60
2022/03/14 10:41:28;;;;;;;;;;;;;;;;;;4221582;28;985;-60
2022/03/14 10:43:51;;;;;;;;;;;;;;;;;;4219369;28;1159;-60
2022/03/14 10:46:11;;;;;;;;;;;;;;;;;;4219864;28;986;-60
2022/03/14 10:48:33;;;;;;;;;;;;;;;;;;4221116;28;865;-61
2022/03/14 10:50:53;;;;;;;;;;;;;;;;;;4218712;28;1907;-60
2022/03/14 10:53:14;;;;;;;;;;;;;;;;;;4212315;28;1289;-60
2022/03/14 10:55:35;;;;;;;;;;;;;;;;;;4221273;28;771;-60
2022/03/14 10:57:56;;;;;;;;;;;;;;;;;;4221147;28;980;-61
2022/03/14 11:00:17;;;;;;;;;;;;;;;;;;4220992;28;1199;-61
2022/03/14 11:02:38;;;;;;;;;;;;;;;;;;4220423;28;978;-61
2022/03/14 11:04:59;;;;;;;;;;;;;;;;;;4220980;28;951;-60
2022/03/14 11:07:20;;;;;;;;;;;;;;;;;;4220391;28;1107;-60
2022/03/14 11:09:40;;;;;;;;;;;;;;;;;;4220924;28;1030;-60
2022/03/14 11:12:01;;;;;;;;;;;;;;;;;;4220704;28;1929;-60
2022/03/14 11:14:23;;;;;;;;;;;;;;;;;;4220122;28;930;-60
2022/03/14 11:16:44;;;;;;;;;;;;;;;;;;4218022;28;1401;-61
2022/03/14 11:19:05;;;;;;;;;;;;;;;;;;4220818;28;1001;-61
2022/03/14 11:21:26;;;;;;;;;;;;;;;;;;4202108;28;984;-61
2022/03/14 11:23:47;;;;;;;;;;;;;;;;;;4203932;28;1260;-60
2022/03/14 11:26:07;;;;;;;;;;;;;;;;;;4204322;28;869;-61
2022/03/14 11:28:29;;;;;;;;;;;;;;;;;;4206086;28;929;-61
2022/03/14 11:30:49;;;;;;;;;;;;;;;;;;4220342;28;1909;-59
2022/03/14 11:33:10;;;;;;;;;;;;;;;;;;4220292;28;842;-61
2022/03/14 11:35:30;;;;;;;;;;;;;;;;;;4220407;28;859;-60
2022/03/14 11:37:51;;;;;;;;;;;;;;;;;;4220412;28;863;-61
2022/03/14 11:40:12;;;;;;;;;;;;;;;;;;4220397;28;930;-59
2022/03/14 11:42:33;;;;;;;;;;;;;;;;;;4220217;28;857;-61
2022/03/14 11:44:54;;;;;;;;;;;;;;;;;;4218978;28;1405;-61
2022/03/14 11:47:14;;;;;;;;;;;;;;;;;;4220005;28;899;-61
2022/03/14 11:49:35;;;;;;;;;;;;;;;;;;4219086;28;965;-61
2022/03/14 11:51:56;;;;;;;;;;;;;;;;;;4219989;28;1905;-61
2022/03/14 11:54:17;;;;;;;;;;;;;;;;;;4220264;28;1101;-61
2022/03/14 11:56:38;;;;;;;;;;;;;;;;;;4220460;28;872;-61
2022/03/14 11:59:00;;;;;;;;;;;;;;;;;;4220456;28;884;-61
2022/03/14 12:01:22;;;;;;;;;;;;;;;;;;4219084;28;1351;-62
2022/03/14 12:03:43;;;;;;;;;;;;;;;;;;4204695;28;1068;-60
2022/03/14 12:06:03;;;;;;;;;;;;;;;;;;4220104;28;818;-61
2022/03/14 12:08:25;;;;;;;;;;;;;;;;;;4219768;28;1122;-61
2022/03/14 12:10:46;;;;;;;;;;;;;;;;;;4204464;28;1906;-62
2022/03/14 12:13:06;;;;;;;;;;;;;;;;;;4219745;28;937;-61
2022/03/14 12:15:27;;;;;;;;;;;;;;;;;;4219976;28;948;-62
2022/03/14 12:17:48;;;;;;;;;;;;;;;;;;4218040;28;1038;-61
2022/03/14 12:20:09;;;;;;;;;;;;;;;;;;4219044;28;1129;-61
2022/03/14 12:22:29;;;;;;;;;;;;;;;;;;4218994;28;1018;-62
2022/03/14 12:24:50;;;;;;;;;;;;;;;;;;4219732;28;895;-60
2022/03/14 12:27:11;;;;;;;;;;;;;;;;;;4219613;28;1063;-61
2022/03/14 12:29:31;;;;;;;;;;;;;;;;;;4220007;28;923;-62
2022/03/14 12:31:52;;;;;;;;;;;;;;;;;;4219813;28;1906;-61
2022/03/14 12:34:13;;;;;;;;;;;;;;;;;;4218800;28;1102;-62
2022/03/14 12:36:38;;;;;;;;;;;;;;;;;;4219524;28;811;-63
2022/03/14 12:38:58;;;;;;;;;;;;;;;;;;4219607;28;921;-62
2022/03/14 12:41:19;;;;;;;;;;;;;;;;;;4218878;28;1030;-62
2022/03/14 12:44:06;;;;;;;;;;;;;;;;;;4220753;28;1395;-61
2022/03/14 12:46:26;;;;;;;;;;;;;;;;;;4220951;28;905;-62
2022/03/14 12:48:47;;;;;;;;;;;;;;;;;;4221092;28;877;-61
2022/03/14 12:51:08;;;;;;;;;;;;;;;;;;4220808;28;1992;-61
2022/03/14 12:53:29;;;;;;;;;;;;;;;;;;4221120;28;850;-61
2022/03/14 12:55:49;;;;;;;;;;;;;;;;;;4220925;28;841;-61
2022/03/14 12:58:12;;;;;;;;;;;;;;;;;;4220723;28;870;-62
2022/03/14 13:00:32;;;;;;;;;;;;;;;;;;4220931;28;830;-61
2022/03/14 13:02:53;;;;;;;;;;;;;;;;;;4220967;28;821;-61
2022/03/14 13:05:14;;;;;;;;;;;;;;;;;;4220781;28;965;-61
2022/03/14 13:07:35;;;;;;;;;;;;;;;;;;4220688;28;956;-62
2022/03/14 13:09:56;;;;;;;;;;;;;;;;;;4220840;28;923;-62
2022/03/14 13:12:17;;;;;;;;;;;;;;;;;;4220710;28;2008;-61
2022/03/14 13:14:41;;;;;;;;;;;;;;;;;;4219904;28;1192;-61
2022/03/14 13:17:02;;;;;;;;;;;;;;;;;;4220788;28;851;-61
2022/03/14 13:19:24;;;;;;;;;;;;;;;;;;4219764;28;866;-62
2022/03/14 13:21:47;;;;;;;;;;;;;;;;;;4213240;28;960;-61
2022/03/14 13:24:09;;;;;;;;;;;;;;;;;;4217796;28;958;-61
2022/03/14 13:26:30;;;;;;;;;;;;;;;;;;4217743;28;873;-61
2022/03/14 13:28:50;;;;;;;;;;;;;;;;;;4202199;28;999;-61
2022/03/14 13:31:11;;;;;;;;;;;;;;;;;;4218647;28;920;-61
2022/03/14 13:33:32;;;;;;;;;;;;;;;;;;4216920;28;931;-62
2022/03/14 13:35:52;;;;;;;;;;;;;;;;;;4217155;28;941;-61
2022/03/14 13:38:12;;;;;;;;;;;;;;;;;;4217803;28;985;-61
2022/03/14 13:40:33;;;;;;;;;;;;;;;;;;4216833;28;1255;-61
2022/03/14 13:42:55;;;;;;;;;;;;;;;;;;4217177;28;940;-61
2022/03/14 13:45:15;;;;;;;;;;;;;;;;;;4216601;28;1095;-61
2022/03/14 13:47:37;;;;;;;;;;;;;;;;;;4217230;28;895;-61
2022/03/14 13:49:57;;;;;;;;;;;;;;;;;;4216933;28;1040;-61
2022/03/14 13:52:18;;;;;;;;;;;;;;;;;;4217485;28;1909;-60
2022/03/14 13:54:39;;;;;;;;;;;;;;;;;;4217508;28;849;-61
2022/03/14 13:56:59;;;;;;;;;;;;;;;;;;4217490;28;1013;-60
2022/03/14 13:59:21;;;;;;;;;;;;;;;;;;4216446;28;974;-60
2022/03/14 14:01:42;;;;;;;;;;;;;;;;;;4216750;28;916;-61
2022/03/14 14:04:03;;;;;;;;;;;;;;;;;;4216821;28;861;-61
2022/03/14 14:06:23;;;;;;;;;;;;;;;;;;4216656;28;1356;-60
2022/03/14 14:08:44;;;;;;;;;;;;;;;;;;4217164;28;918;-61
2022/03/14 14:11:04;;;;;;;;;;;;;;;;;;4217098;28;854;-61
2022/03/14 14:13:25;;;;;;;;;;;;;;;;;;4216664;28;1976;-59
2022/03/14 14:15:46;;;;;;;;;;;;;;;;;;4217135;28;1104;-60
2022/03/14 14:18:06;;;;;;;;;;;;;;;;;;4217138;28;857;-60
2022/03/14 14:20:27;;;;;;;;;;;;;;;;;;4216580;28;1053;-61
2022/03/14 14:22:48;;;;;;;;;;;;;;;;;;4217112;28;847;-60
2022/03/14 14:25:09;;;;;;;;;;;;;;;;;;4216923;28;1009;-61
2022/03/14 14:27:30;;;;;;;;;;;;;;;;;;4216822;28;932;-61
2022/03/14 14:29:51;;;;;;;;;;;;;;;;;;4216313;28;1053;-59
2022/03/14 14:32:11;;;;;;;;;;;;;;;;;;4217293;28;1914;-61
2022/03/14 14:34:33;;;;;;;;;;;;;;;;;;4216687;28;878;-60
2022/03/14 14:36:53;;;;;;;;;;;;;;;;;;4217077;28;1037;-60
2022/03/14 14:39:14;;;;;;;;;;;;;;;;;;4217261;28;970;-61
2022/03/14 14:41:34;;;;;;;;;;;;;;;;;;4216643;28;1096;-61
2022/03/14 14:43:56;;;;;;;;;;;;;;;;;;4216996;28;1051;-61
2022/03/14 14:46:16;;;;;;;;;;;;;;;;;;4216086;28;876;-59
2022/03/14 14:48:37;;;;;;;;;;;;;;;;;;4216794;28;873;-60
2022/03/14 14:50:58;;;;;;;;;;;;;;;;;;4217006;28;949;-61
2022/03/14 14:53:19;;;;;;;;;;;;;;;;;;4216725;28;2006;-59
2022/03/14 14:55:40;;;;;;;;;;;;;;;;;;4216810;28;853;-60
2022/03/14 14:58:01;;;;;;;;;;;;;;;;;;4219363;28;1122;-60
2022/03/14 15:00:22;;;;;;;;;;;;;;;;;;4219672;28;1328;-61
2022/03/14 15:02:42;;;;;;;;;;;;;;;;;;4218938;28;1018;-60
2022/03/14 15:05:03;;;;;;;;;;;;;;;;;;4219183;28;955;-60
2022/03/14 15:07:24;;;;;;;;;;;;;;;;;;4219377;28;952;-60
2022/03/14 15:09:45;;;;;;;;;;;;;;;;;;4218773;28;1155;-60
2022/03/14 15:12:06;;;;;;;;;;;;;;;;;;4217212;28;1974;-61
2022/03/14 15:14:27;;;;;;;;;;;;;;;;;;4218407;28;974;-61
2022/03/14 15:16:49;;;;;;;;;;;;;;;;;;4206704;28;817;-60
2022/03/14 15:19:10;;;;;;;;;;;;;;;;;;4218790;28;818;-60
2022/03/14 15:21:30;;;;;;;;;;;;;;;;;;4218697;28;1137;-60
2022/03/14 15:23:51;;;;;;;;;;;;;;;;;;4203441;28;960;-60
2022/03/14 15:26:12;;;;;;;;;;;;;;;;;;4218465;28;1013;-59
2022/03/14 15:28:33;;;;;;;;;;;;;;;;;;4218832;28;978;-59
2022/03/14 15:30:55;;;;;;;;;;;;;;;;;;4218772;28;994;-61
2022/03/14 15:33:17;;;;;;;;;;;;;;;;;;4218650;28;1982;-61
2022/03/14 15:35:38;;;;;;;;;;;;;;;;;;4219824;28;961;-60
2022/03/14 15:38:02;;;;;;;;;;;;;;;;;;4218630;28;954;-60
2022/03/14 15:40:24;;;;;;;;;;;;;;;;;;4203740;28;924;-60
2022/03/14 15:42:46;;;;;;;;;;;;;;;;;;4200773;28;925;-60
2022/03/14 15:45:06;;;;;;;;;;;;;;;;;;4218834;28;1333;-62
2022/03/14 15:47:27;;;;;;;;;;;;;;;;;;4217928;28;1005;-60
2022/03/14 15:49:48;;;;;;;;;;;;;;;;;;4217150;28;886;-61
2022/03/14 15:52:08;;;;;;;;;;;;;;;;;;4218775;28;1929;-61
2022/03/14 15:54:29;;;;;;;;;;;;;;;;;;4219041;28;837;-60
2022/03/14 15:56:50;;;;;;;;;;;;;;;;;;4217055;28;1035;-61
2022/03/14 15:59:10;;;;;;;;;;;;;;;;;;4203283;28;788;-62
2022/03/14 16:01:33;;;;;;;;;;;;;;;;;;4204662;28;1511;-60
2022/03/14 16:03:53;;;;;;;;;;;;;;;;;;4201755;28;825;-61
2022/03/14 16:06:14;;;;;;;;;;;;;;;;;;4201983;28;967;-61
2022/03/14 16:12:05;;;;;;;;;;;;;;;;;;4181035;28;1298;-60
2022/03/14 16:14:27;;;;;;;;;;;;;;;;;;4184100;28;891;-60
2022/03/14 16:16:48;;;;;;;;;;;;;;;;;;4184234;28;1038;-60
2022/03/14 16:19:10;;;;;;;;;;;;;;;;;;4184357;28;1060;-59
2022/03/14 16:21:35;;;;;;;;;;;;;;;;;;4184144;28;1014;-60
2022/03/14 16:23:56;;;;;;;;;;;;;;;;;;4184277;28;948;-61
2022/03/14 16:26:17;;;;;;;;;;;;;;;;;;4184320;28;870;-60
2022/03/14 16:28:38;;;;;;;;;;;;;;;;;;4183864;28;1329;-60
2022/03/14 16:30:58;;;;;;;;;;;;;;;;;;4184464;28;1003;-60
2022/03/14 16:33:19;;;;;;;;;;;;;;;;;;4184037;28;1913;-61
2022/03/14 16:35:40;;;;;;;;;;;;;;;;;;4184134;28;833;-61